Time,TemperatureF,DewpointF,PressureIn,WindDirection,WindDirectionDegrees,WindSpeedMPH,WindSpeedGustMPH,Humidity,HourlyPrecipIn,Conditions,Clouds,dailyrainin,SoftwareType,DateUTC
2013-04-19 00:00:00,19.8,5.8,30.42,SSW,209,0.0,0.0,54,0.00,,,0.00,Wunderground v.1.15,2013-04-19 06:00:00,
2013-04-19 00:10:00,19.6,5.2,30.43,SSW,209,0.0,0.0,53,0.00,,,0.00,Wunderground v.1.15,2013-04-19 06:10:00,
2013-04-19 00:15:00,19.4,5.0,30.43,SSW,209,0.0,0.0,53,0.00,,,0.00,Wunderground v.1.15,2013-04-19 06:15:00,
2013-04-19 00:25:00,19.1,4.8,30.44,SSW,209,0.0,0.0,53,0.00,,,0.00,Wunderground v.1.15,2013-04-19 06:25:00,
2013-04-19 00:30:00,19.0,5.9,30.43,SSW,209,0.0,0.0,56,0.00,,,0.00,Wunderground v.1.15,2013-04-19 06:30:00,
2013-04-19 00:35:00,18.9,5.0,30.43,SSW,209,0.0,0.0,54,0.00,,,0.00,Wunderground v.1.15,2013-04-19 06:35:00,
2013-04-19 00:40:00,18.8,5.7,30.43,SSW,209,0.0,0.0,56,0.00,,,0.00,Wunderground v.1.15,2013-04-19 06:40:00,
2013-04-19 00:45:00,18.6,5.9,30.43,SSW,209,0.0,0.0,57,0.00,,,0.00,Wunderground v.1.15,2013-04-19 06:45:00,
2013-04-19 00:55:00,18.3,5.6,30.43,SSW,209,0.0,0.0,57,0.00,,,0.00,Wunderground v.1.15,2013-04-19 06:55:00,
2013-04-19 01:05:00,18.0,6.1,30.45,SSW,209,0.0,0.0,59,0.00,,,0.00,Wunderground v.1.15,2013-04-19 07:05:00,
2013-04-19 01:15:00,18.0,6.1,30.45,SSW,209,0.0,0.0,59,0.00,,,0.00,Wunderground v.1.15,2013-04-19 07:15:00,
2013-04-19 01:25:00,17.6,5.3,30.45,SSW,209,0.0,0.0,58,0.00,,,0.00,Wunderground v.1.15,2013-04-19 07:25:00,
2013-04-19 01:30:00,17.4,5.1,30.46,SSW,209,0.0,0.0,58,0.00,,,0.00,Wunderground v.1.15,2013-04-19 07:30:00,
2013-04-19 01:35:00,17.2,4.9,30.45,SSW,209,0.0,0.0,58,0.00,,,0.00,Wunderground v.1.15,2013-04-19 07:35:00,
2013-04-19 01:45:00,17.0,5.9,30.46,SSW,209,0.0,0.0,61,0.00,,,0.00,Wunderground v.1.15,2013-04-19 07:45:00,
2013-04-19 01:50:00,16.8,5.3,30.46,SSW,209,0.0,0.0,60,0.00,,,0.00,Wunderground v.1.15,2013-04-19 07:50:00,
2013-04-19 01:55:00,16.6,4.7,30.46,SSW,209,0.0,0.0,59,0.00,,,0.00,Wunderground v.1.15,2013-04-19 07:55:00,
2013-04-19 02:05:00,16.4,5.6,30.46,SSW,209,0.0,0.0,62,0.00,,,0.00,Wunderground v.1.15,2013-04-19 08:05:00,
2013-04-19 02:10:00,16.4,5.6,30.46,SSW,209,0.0,0.0,62,0.00,,,0.00,Wunderground v.1.15,2013-04-19 08:10:00,
2013-04-19 02:15:00,16.3,5.9,30.46,SSW,209,0.0,0.0,63,0.00,,,0.00,Wunderground v.1.15,2013-04-19 08:15:00,
2013-04-19 02:25:00,16.2,5.5,30.46,SSW,209,0.0,0.0,62,0.00,,,0.00,Wunderground v.1.15,2013-04-19 08:25:00,
2013-04-19 02:30:00,16.1,5.0,30.46,SSW,209,0.0,0.0,61,0.00,,,0.00,Wunderground v.1.15,2013-04-19 08:30:00,
2013-04-19 02:35:00,15.9,4.8,30.47,SSW,209,0.0,0.0,61,0.00,,,0.00,Wunderground v.1.15,2013-04-19 08:35:00,
2013-04-19 02:45:00,15.7,5.3,30.47,SSW,209,0.0,0.0,63,0.00,,,0.00,Wunderground v.1.15,2013-04-19 08:45:00,
2013-04-19 02:50:00,15.7,5.3,30.47,SSW,209,0.0,0.0,63,0.00,,,0.00,Wunderground v.1.15,2013-04-19 08:50:00,
2013-04-19 03:00:00,15.4,5.4,30.47,SSW,209,0.0,0.0,64,0.00,,,0.00,Wunderground v.1.15,2013-04-19 09:00:00,
2013-04-19 03:05:00,15.3,5.3,30.46,SSW,209,0.0,0.0,64,0.00,,,0.00,Wunderground v.1.15,2013-04-19 09:05:00,
2013-04-19 03:10:00,15.3,6.0,30.47,SSW,209,0.0,0.0,66,0.00,,,0.00,Wunderground v.1.15,2013-04-19 09:10:00,
2013-04-19 03:15:00,15.3,5.3,30.47,SSW,209,0.0,1.0,64,0.00,,,0.00,Wunderground v.1.15,2013-04-19 09:15:00,
2013-04-19 03:25:00,15.2,5.5,30.47,SSW,209,0.0,1.0,65,0.00,,,0.00,Wunderground v.1.15,2013-04-19 09:25:00,
2013-04-19 03:35:00,15.1,5.4,30.46,SSW,209,0.0,1.0,65,0.00,,,0.00,Wunderground v.1.15,2013-04-19 09:35:00,
2013-04-19 03:40:00,15.1,4.8,30.46,SSW,209,0.0,1.0,63,0.00,,,0.00,Wunderground v.1.15,2013-04-19 09:40:00,
2013-04-19 03:50:00,14.9,4.9,30.47,SSW,209,0.0,1.0,64,0.00,,,0.00,Wunderground v.1.15,2013-04-19 09:50:00,
2013-04-19 03:55:00,14.8,4.8,30.47,SSW,209,0.0,1.0,64,0.00,,,0.00,Wunderground v.1.15,2013-04-19 09:55:00,
2013-04-19 04:05:00,14.9,4.9,30.47,SSW,209,0.0,1.0,64,0.00,,,0.00,Wunderground v.1.15,2013-04-19 10:05:00,
2013-04-19 04:15:00,14.5,5.2,30.47,SSW,209,0.0,1.0,66,0.00,,,0.00,Wunderground v.1.15,2013-04-19 10:15:00,
2013-04-19 04:25:00,14.3,5.7,30.47,SSW,209,0.0,0.0,68,0.00,,,0.00,Wunderground v.1.15,2013-04-19 10:25:00,
2013-04-19 04:35:00,14.1,5.8,30.48,SSW,209,0.0,0.0,69,0.00,,,0.00,Wunderground v.1.15,2013-04-19 10:35:00,
2013-04-19 04:45:00,14.1,5.5,30.48,SSW,209,0.0,0.0,68,0.00,,,0.00,Wunderground v.1.15,2013-04-19 10:45:00,
2013-04-19 04:50:00,14.1,5.8,30.47,SSW,209,0.0,0.0,69,0.00,,,0.00,Wunderground v.1.15,2013-04-19 10:50:00,
2013-04-19 04:55:00,14.0,5.4,30.47,SSW,209,0.0,0.0,68,0.00,,,0.00,Wunderground v.1.15,2013-04-19 10:55:00,
2013-04-19 05:00:00,13.9,5.6,30.47,SSW,209,0.0,0.0,69,0.00,,,0.00,Wunderground v.1.15,2013-04-19 11:00:00,
2013-04-19 05:10:00,13.9,5.6,30.46,SSW,209,0.0,0.0,69,0.00,,,0.00,Wunderground v.1.15,2013-04-19 11:10:00,
2013-04-19 05:15:00,14.0,5.7,30.46,SSW,209,0.0,0.0,69,0.00,,,0.00,Wunderground v.1.15,2013-04-19 11:15:00,
2013-04-19 05:25:00,13.9,5.6,30.47,SSW,209,0.0,0.0,69,0.00,,,0.00,Wunderground v.1.15,2013-04-19 11:25:00,
2013-04-19 05:35:00,13.7,5.4,30.48,SSW,209,0.0,0.0,69,0.00,,,0.00,Wunderground v.1.15,2013-04-19 11:35:00,
2013-04-19 05:45:00,13.5,5.5,30.48,SSW,209,0.0,0.0,70,0.00,,,0.00,Wunderground v.1.15,2013-04-19 11:45:00,
2013-04-19 05:50:00,13.4,5.1,30.48,SSW,209,0.0,0.0,69,0.00,,,0.00,Wunderground v.1.15,2013-04-19 11:50:00,
2013-04-19 05:55:00,13.3,5.3,30.48,SSW,209,0.0,0.0,70,0.00,,,0.00,Wunderground v.1.15,2013-04-19 11:55:00,
2013-04-19 06:05:00,13.3,5.3,30.48,SSW,209,0.0,0.0,70,0.00,,,0.00,Wunderground v.1.15,2013-04-19 12:05:00,
2013-04-19 06:10:00,13.2,5.6,30.48,SSW,209,0.0,0.0,71,0.00,,,0.00,Wunderground v.1.15,2013-04-19 12:10:00,
2013-04-19 06:15:00,13.1,5.5,30.48,SSW,209,0.0,0.0,71,0.00,,,0.00,Wunderground v.1.15,2013-04-19 12:15:00,
2013-04-19 06:25:00,13.3,5.3,30.48,SSW,209,0.0,0.0,70,0.00,,,0.00,Wunderground v.1.15,2013-04-19 12:25:00,
2013-04-19 06:30:00,13.2,5.2,30.48,SSW,209,0.0,0.0,70,0.00,,,0.00,Wunderground v.1.15,2013-04-19 12:30:00,
2013-04-19 06:35:00,13.2,5.9,30.48,SSW,209,0.0,0.0,72,0.00,,,0.00,Wunderground v.1.15,2013-04-19 12:35:00,
2013-04-19 06:40:00,13.2,5.9,30.48,SSW,209,0.0,0.0,72,0.00,,,0.00,Wunderground v.1.15,2013-04-19 12:40:00,
2013-04-19 06:50:00,13.1,5.5,30.49,SSW,209,0.0,0.0,71,0.00,,,0.00,Wunderground v.1.15,2013-04-19 12:50:00,
2013-04-19 06:55:00,13.0,5.7,30.50,SSW,209,0.0,0.0,72,0.00,,,0.00,Wunderground v.1.15,2013-04-19 12:55:00,
2013-04-19 07:00:00,13.0,5.7,30.50,SSW,209,0.0,0.0,72,0.00,,,0.00,Wunderground v.1.15,2013-04-19 13:00:00,
2013-04-19 07:10:00,13.2,5.9,30.50,SSW,209,0.0,0.0,72,0.00,,,0.00,Wunderground v.1.15,2013-04-19 13:10:00,
2013-04-19 07:15:00,13.3,6.0,30.50,SSW,209,0.0,0.0,72,0.00,,,0.00,Wunderground v.1.15,2013-04-19 13:15:00,
2013-04-19 07:25:00,13.6,6.5,30.50,SSW,209,0.0,0.0,73,0.00,,,0.00,Wunderground v.1.15,2013-04-19 13:25:00,
2013-04-19 07:35:00,14.0,6.9,30.50,SSW,209,0.0,0.0,73,0.00,,,0.00,Wunderground v.1.15,2013-04-19 13:35:00,
2013-04-19 07:45:00,14.9,6.2,30.50,SSW,209,0.0,0.0,68,0.00,,,0.00,Wunderground v.1.15,2013-04-19 13:45:00,
2013-04-19 07:50:00,15.4,5.4,30.50,SSW,209,0.0,0.0,64,0.00,,,0.00,Wunderground v.1.15,2013-04-19 13:50:00,
2013-04-19 07:55:00,16.2,7.2,30.50,SSW,209,0.0,0.0,67,0.00,,,0.00,Wunderground v.1.15,2013-04-19 13:55:00,
2013-04-19 08:00:00,16.8,7.7,30.50,SSW,209,0.0,0.0,67,0.00,,,0.00,Wunderground v.1.15,2013-04-19 14:00:00,
2013-04-19 08:05:00,17.6,6.4,30.49,SSW,209,0.0,1.0,61,0.00,,,0.00,Wunderground v.1.15,2013-04-19 14:05:00,
2013-04-19 08:15:00,19.7,6.1,30.49,SSW,209,1.0,1.0,55,0.00,,,0.00,Wunderground v.1.15,2013-04-19 14:15:00,
2013-04-19 08:25:00,20.7,4.5,30.49,SSW,209,0.0,0.0,49,0.00,,,0.00,Wunderground v.1.15,2013-04-19 14:25:00,
2013-04-19 08:30:00,21.6,5.4,30.49,SSW,209,0.0,1.0,49,0.00,,,0.00,Wunderground v.1.15,2013-04-19 14:30:00,
2013-04-19 08:35:00,22.4,5.6,30.48,SSW,209,0.0,1.0,48,0.00,,,0.00,Wunderground v.1.15,2013-04-19 14:35:00,
2013-04-19 08:45:00,23.8,6.9,30.48,SSW,209,0.0,0.0,48,0.00,,,0.00,Wunderground v.1.15,2013-04-19 14:45:00,
2013-04-19 08:50:00,24.4,4.6,30.48,SSW,209,0.0,0.0,42,0.00,,,0.00,Wunderground v.1.15,2013-04-19 14:50:00,
2013-04-19 09:00:00,25.8,4.2,30.48,SSW,209,0.0,0.0,39,0.00,,,0.00,Wunderground v.1.15,2013-04-19 15:00:00,
2013-04-19 09:05:00,26.7,3.3,30.48,SE,140,0.0,0.0,36,0.00,,,0.00,Wunderground v.1.15,2013-04-19 15:05:00,
2013-04-19 09:10:00,27.6,4.7,30.48,SE,138,1.0,1.0,37,0.00,,,0.00,Wunderground v.1.15,2013-04-19 15:10:00,
2013-04-19 09:15:00,28.3,2.8,30.48,SE,138,1.0,2.0,33,0.00,,,0.00,Wunderground v.1.15,2013-04-19 15:15:00,
2013-04-19 09:25:00,29.7,6.0,30.47,SE,127,0.0,2.0,36,0.00,,,0.00,Wunderground v.1.15,2013-04-19 15:25:00,
2013-04-19 09:30:00,30.6,4.2,30.48,SE,127,0.0,2.0,32,0.00,,,0.00,Wunderground v.1.15,2013-04-19 15:30:00,
2013-04-19 09:40:00,32.0,2.5,30.47,SE,132,1.0,1.0,28,0.00,,,0.00,Wunderground v.1.15,2013-04-19 15:40:00,
2013-04-19 09:50:00,33.0,2.6,30.48,SE,132,1.0,2.0,27,0.00,,,0.00,Wunderground v.1.15,2013-04-19 15:50:00,
2013-04-19 09:55:00,34.4,3.0,30.47,SE,128,1.0,2.0,26,0.00,,,0.00,Wunderground v.1.15,2013-04-19 15:55:00,
2013-04-19 10:05:00,36.4,3.9,30.47,SE,124,1.0,2.0,25,0.00,,,0.00,Wunderground v.1.15,2013-04-19 16:05:00,
2013-04-19 10:10:00,37.1,5.3,30.47,ESE,119,1.0,3.0,26,0.00,,,0.00,Wunderground v.1.15,2013-04-19 16:10:00,
2013-04-19 10:15:00,38.0,5.2,30.46,ESE,119,1.0,4.0,25,0.00,,,0.00,Wunderground v.1.15,2013-04-19 16:15:00,
2013-04-19 10:25:00,38.4,7.3,30.46,SSE,168,1.0,4.0,27,0.00,,,0.00,Wunderground v.1.15,2013-04-19 16:25:00,
2013-04-19 10:30:00,39.2,7.1,30.46,ESE,119,1.0,4.0,26,0.00,,,0.00,Wunderground v.1.15,2013-04-19 16:30:00,
2013-04-19 10:35:00,39.3,5.5,30.46,ESE,107,2.0,4.0,24,0.00,,,0.00,Wunderground v.1.15,2013-04-19 16:35:00,
2013-04-19 10:40:00,39.0,6.1,30.46,ESE,105,2.0,2.0,25,0.00,,,0.00,Wunderground v.1.15,2013-04-19 16:40:00,
2013-04-19 10:50:00,39.3,7.2,30.46,East,84,2.0,2.0,26,0.00,,,0.00,Wunderground v.1.15,2013-04-19 16:50:00,
2013-04-19 10:55:00,39.3,6.3,30.46,ESE,106,2.0,4.0,25,0.00,,,0.00,Wunderground v.1.15,2013-04-19 16:55:00,
2013-04-19 11:00:00,39.2,7.1,30.45,East,90,3.0,3.0,26,0.00,,,0.00,Wunderground v.1.15,2013-04-19 17:00:00,
2013-04-19 11:05:00,39.0,7.8,30.45,East,90,3.0,4.0,27,0.00,,,0.00,Wunderground v.1.15,2013-04-19 17:05:00,
2013-04-19 11:15:00,40.8,9.3,30.44,East,88,1.0,6.0,27,0.00,,,0.00,Wunderground v.1.15,2013-04-19 17:15:00,
2013-04-19 11:25:00,42.4,10.7,30.44,South,178,1.0,6.0,27,0.00,,,0.00,Wunderground v.1.15,2013-04-19 17:25:00,
2013-04-19 11:30:00,41.6,9.2,30.43,East,90,2.0,6.0,26,0.00,,,0.00,Wunderground v.1.15,2013-04-19 17:30:00,
2013-04-19 11:35:00,41.1,9.6,30.43,East,86,3.0,6.0,27,0.00,,,0.00,Wunderground v.1.15,2013-04-19 17:35:00,
2013-04-19 11:40:00,40.6,9.2,30.43,East,83,4.0,4.0,27,0.00,,,0.00,Wunderground v.1.15,2013-04-19 17:40:00,
2013-04-19 11:45:00,40.6,8.3,30.43,East,96,3.0,6.0,26,0.00,,,0.00,Wunderground v.1.15,2013-04-19 17:45:00,
2013-04-19 11:55:00,41.1,9.6,30.42,East,92,2.0,6.0,27,0.00,,,0.00,Wunderground v.1.15,2013-04-19 17:55:00,
2013-04-19 12:00:00,41.8,9.4,30.41,East,94,2.0,2.0,26,0.00,,,0.00,Wunderground v.1.15,2013-04-19 18:00:00,
2013-04-19 12:05:00,42.3,11.5,30.41,East,95,2.0,6.0,28,0.00,,,0.00,Wunderground v.1.15,2013-04-19 18:05:00,
2013-04-19 12:10:00,42.8,9.3,30.41,South,178,2.0,2.0,25,0.00,,,0.00,Wunderground v.1.15,2013-04-19 18:10:00,
2013-04-19 12:15:00,43.7,11.0,30.41,South,175,2.0,5.0,26,0.00,,,0.00,Wunderground v.1.15,2013-04-19 18:15:00,
2013-04-19 12:25:00,44.6,11.8,30.40,South,190,2.0,5.0,26,0.00,,,0.00,Wunderground v.1.15,2013-04-19 18:25:00,
2013-04-19 12:30:00,45.1,10.4,30.40,SSW,207,2.0,2.0,24,0.00,,,0.00,Wunderground v.1.15,2013-04-19 18:30:00,
2013-04-19 12:35:00,45.4,11.6,30.40,East,85,2.0,5.0,25,0.00,,,0.00,Wunderground v.1.15,2013-04-19 18:35:00,
2013-04-19 12:40:00,45.0,13.0,30.40,SE,138,2.0,2.0,27,0.00,,,0.00,Wunderground v.1.15,2013-04-19 18:40:00,
2013-04-19 12:50:00,44.7,12.7,30.39,South,190,2.0,2.0,27,0.00,,,0.00,Wunderground v.1.15,2013-04-19 18:50:00,
2013-04-19 13:00:00,44.6,10.9,30.39,WSW,239,3.0,5.0,25,0.00,,,0.00,Wunderground v.1.15,2013-04-19 19:00:00,
2013-04-19 13:10:00,44.3,11.5,30.38,NE,56,3.0,3.0,26,0.00,,,0.00,Wunderground v.1.15,2013-04-19 19:10:00,
2013-04-19 13:15:00,44.2,13.1,30.37,East,88,3.0,4.0,28,0.00,,,0.00,Wunderground v.1.15,2013-04-19 19:15:00,
2013-04-19 13:25:00,44.6,10.9,30.36,East,88,2.0,7.0,25,0.00,,,0.00,Wunderground v.1.15,2013-04-19 19:25:00,
2013-04-19 13:30:00,44.7,11.9,30.36,ENE,76,2.0,7.0,26,0.00,,,0.00,Wunderground v.1.15,2013-04-19 19:30:00,
2013-04-19 13:35:00,45.5,11.7,30.36,East,84,2.0,7.0,25,0.00,,,0.00,Wunderground v.1.15,2013-04-19 19:35:00,
2013-04-19 13:40:00,45.6,13.5,30.35,ENE,76,2.0,7.0,27,0.00,,,0.00,Wunderground v.1.15,2013-04-19 19:40:00,
2013-04-19 13:45:00,46.5,15.9,30.35,SE,141,2.0,7.0,29,0.00,,,0.00,Wunderground v.1.15,2013-04-19 19:45:00,
2013-04-19 13:55:00,46.8,12.8,30.34,ENE,76,3.0,7.0,25,0.00,,,0.00,Wunderground v.1.15,2013-04-19 19:55:00,
2013-04-19 14:00:00,46.4,13.3,30.33,SSW,200,3.0,7.0,26,0.00,,,0.00,Wunderground v.1.15,2013-04-19 20:00:00,
2013-04-19 14:05:00,46.9,14.6,30.33,East,81,2.0,7.0,27,0.00,,,0.00,Wunderground v.1.15,2013-04-19 20:05:00,
2013-04-19 14:15:00,47.0,12.9,30.32,East,84,3.0,4.0,25,0.00,,,0.00,Wunderground v.1.15,2013-04-19 20:15:00,
2013-04-19 14:25:00,47.7,16.1,30.32,East,93,2.0,6.0,28,0.00,,,0.00,Wunderground v.1.15,2013-04-19 20:25:00,
2013-04-19 14:35:00,48.2,16.6,30.31,ESE,111,2.0,6.0,28,0.00,,,0.00,Wunderground v.1.15,2013-04-19 20:35:00,
2013-04-19 14:40:00,48.5,15.1,30.31,East,88,3.0,6.0,26,0.00,,,0.00,Wunderground v.1.15,2013-04-19 20:40:00,
2013-04-19 14:45:00,48.4,15.9,30.31,SSW,211,3.0,6.0,27,0.00,,,0.00,Wunderground v.1.15,2013-04-19 20:45:00,
2013-04-19 14:50:00,48.6,16.9,30.30,East,94,3.0,3.0,28,0.00,,,0.00,Wunderground v.1.15,2013-04-19 20:50:00,
2013-04-19 15:00:00,49.0,16.4,30.29,East,101,2.0,2.0,27,0.00,,,0.00,Wunderground v.1.15,2013-04-19 21:00:00,
2013-04-19 15:05:00,49.7,17.9,30.29,SE,136,1.0,6.0,28,0.00,,,0.00,Wunderground v.1.15,2013-04-19 21:05:00,
2013-04-19 15:15:00,49.9,16.3,30.28,East,94,2.0,10.0,26,0.00,,,0.00,Wunderground v.1.15,2013-04-19 21:15:00,
2013-04-19 15:25:00,48.9,16.3,30.27,SE,125,3.0,10.0,27,0.00,,,0.00,Wunderground v.1.15,2013-04-19 21:25:00,
2013-04-19 15:30:00,48.8,17.1,30.27,SE,144,2.0,10.0,28,0.00,,,0.00,Wunderground v.1.15,2013-04-19 21:30:00,
2013-04-19 15:35:00,49.0,17.3,30.26,ESE,117,2.0,10.0,28,0.00,,,0.00,Wunderground v.1.15,2013-04-19 21:35:00,
2013-04-19 15:45:00,48.2,15.7,30.26,SE,124,2.0,10.0,27,0.00,,,0.00,Wunderground v.1.15,2013-04-19 21:45:00,
2013-04-19 15:55:00,47.9,17.1,30.25,SE,132,2.0,10.0,29,0.00,,,0.00,Wunderground v.1.15,2013-04-19 21:55:00,
2013-04-19 16:05:00,48.0,17.2,30.24,SE,146,1.0,10.0,29,0.00,,,0.00,Wunderground v.1.15,2013-04-19 22:05:00,
2013-04-19 16:10:00,47.9,18.7,30.24,East,97,1.0,10.0,31,0.00,,,0.00,Wunderground v.1.15,2013-04-19 22:10:00,
2013-04-19 16:15:00,47.8,16.2,30.24,East,91,1.0,10.0,28,0.00,,,0.00,Wunderground v.1.15,2013-04-19 22:15:00,
2013-04-19 16:25:00,47.6,16.9,30.23,SSW,210,1.0,5.0,29,0.00,,,0.00,Wunderground v.1.15,2013-04-19 22:25:00,
2013-04-19 16:35:00,47.7,17.7,30.22,ENE,57,0.0,5.0,30,0.00,,,0.00,Wunderground v.1.15,2013-04-19 22:35:00,
2013-04-19 16:45:00,47.6,16.9,30.21,SSW,211,1.0,5.0,29,0.00,,,0.00,Wunderground v.1.15,2013-04-19 22:45:00,
2013-04-19 16:50:00,47.4,17.5,30.21,SW,215,1.0,5.0,30,0.00,,,0.00,Wunderground v.1.15,2013-04-19 22:50:00,
2013-04-19 16:55:00,47.4,16.7,30.21,ESE,113,1.0,5.0,29,0.00,,,0.00,Wunderground v.1.15,2013-04-19 22:55:00,
2013-04-19 17:05:00,47.6,15.2,30.21,SSW,206,1.0,5.0,27,0.00,,,0.00,Wunderground v.1.15,2013-04-19 23:05:00,
2013-04-19 17:15:00,47.7,14.4,30.21,SSW,211,1.0,9.0,26,0.00,,,0.00,Wunderground v.1.15,2013-04-19 23:15:00,
2013-04-19 17:25:00,47.6,14.3,30.22,SSE,161,1.0,9.0,26,0.00,,,0.00,Wunderground v.1.15,2013-04-19 23:25:00,
2013-04-19 17:35:00,47.2,14.9,30.21,SW,221,1.0,3.0,27,0.00,,,0.00,Wunderground v.1.15,2013-04-19 23:35:00,
2013-04-19 17:45:00,46.8,14.5,30.22,SSW,200,2.0,9.0,27,0.00,,,0.00,Wunderground v.1.15,2013-04-19 23:45:00,
2013-04-19 17:50:00,46.7,16.1,30.22,SSW,201,1.0,9.0,29,0.00,,,0.00,Wunderground v.1.15,2013-04-19 23:50:00,
2013-04-19 17:55:00,46.5,14.3,30.22,SW,215,1.0,9.0,27,0.00,,,0.00,Wunderground v.1.15,2013-04-19 23:55:00,
2013-04-19 18:00:00,46.2,14.0,30.22,SW,236,1.0,9.0,27,0.00,,,0.00,Wunderground v.1.15,2013-04-20 00:00:00,
2013-04-19 18:10:00,46.0,13.8,30.22,SW,229,1.0,1.0,27,0.00,,,0.00,Wunderground v.1.15,2013-04-20 00:10:00,
2013-04-19 18:15:00,45.8,14.5,30.22,SW,229,0.0,4.0,28,0.00,,,0.00,Wunderground v.1.15,2013-04-20 00:15:00,
2013-04-19 18:25:00,45.7,16.0,30.22,SSW,201,0.0,4.0,30,0.00,,,0.00,Wunderground v.1.15,2013-04-20 00:25:00,
2013-04-19 18:30:00,45.5,15.0,30.22,SSW,213,0.0,4.0,29,0.00,,,0.00,Wunderground v.1.15,2013-04-20 00:30:00,
2013-04-19 18:40:00,45.2,14.8,30.21,South,177,0.0,4.0,29,0.00,,,0.00,Wunderground v.1.15,2013-04-20 00:40:00,
2013-04-19 18:45:00,45.0,13.8,30.21,SSE,152,0.0,4.0,28,0.00,,,0.00,Wunderground v.1.15,2013-04-20 00:45:00,
2013-04-19 18:55:00,44.5,14.2,30.20,SSW,200,1.0,4.0,29,0.00,,,0.00,Wunderground v.1.15,2013-04-20 00:55:00,
2013-04-19 19:00:00,44.3,14.0,30.20,SSW,209,1.0,1.0,29,0.00,,,0.00,Wunderground v.1.15,2013-04-20 01:00:00,
2013-04-19 19:10:00,44.0,13.7,30.20,West,269,1.0,4.0,29,0.00,,,0.00,Wunderground v.1.15,2013-04-20 01:10:00,
2013-04-19 19:15:00,43.9,13.6,30.19,SW,229,1.0,4.0,29,0.00,,,0.00,Wunderground v.1.15,2013-04-20 01:15:00,
2013-04-19 19:25:00,43.6,17.0,30.19,East,92,0.0,4.0,34,0.00,,,0.00,Wunderground v.1.15,2013-04-20 01:25:00,
2013-04-19 19:30:00,43.3,16.1,30.19,East,92,0.0,4.0,33,0.00,,,0.00,Wunderground v.1.15,2013-04-20 01:30:00,
2013-04-19 19:35:00,42.8,14.9,30.19,East,92,0.0,4.0,32,0.00,,,0.00,Wunderground v.1.15,2013-04-20 01:35:00,
2013-04-19 19:40:00,42.5,15.4,30.19,East,92,0.0,4.0,33,0.00,,,0.00,Wunderground v.1.15,2013-04-20 01:40:00,
2013-04-19 19:50:00,41.9,14.8,30.19,East,92,0.0,4.0,33,0.00,,,0.00,Wunderground v.1.15,2013-04-20 01:50:00,
2013-04-19 20:00:00,41.1,15.5,30.19,East,92,0.0,4.0,35,0.00,,,0.00,Wunderground v.1.15,2013-04-20 02:00:00,
2013-04-19 20:05:00,40.5,16.9,30.19,East,92,0.0,4.0,38,0.00,,,0.00,Wunderground v.1.15,2013-04-20 02:05:00,
2013-04-19 20:15:00,39.2,16.9,30.19,East,92,0.0,4.0,40,0.00,,,0.00,Wunderground v.1.15,2013-04-20 02:15:00,
2013-04-19 20:25:00,38.3,17.7,30.19,East,92,0.0,0.0,43,0.00,,,0.00,Wunderground v.1.15,2013-04-20 02:25:00,
2013-04-19 20:35:00,37.6,17.6,30.19,East,92,0.0,0.0,44,0.00,,,0.00,Wunderground v.1.15,2013-04-20 02:35:00,
2013-04-19 20:45:00,36.6,18.2,30.20,East,92,0.0,0.0,47,0.00,,,0.00,Wunderground v.1.15,2013-04-20 02:45:00,
2013-04-19 20:50:00,36.5,19.6,30.20,East,92,0.0,0.0,50,0.00,,,0.00,Wunderground v.1.15,2013-04-20 02:50:00,
2013-04-19 21:00:00,35.7,17.9,30.20,East,92,0.0,0.0,48,0.00,,,0.00,Wunderground v.1.15,2013-04-20 03:00:00,
2013-04-19 21:10:00,35.3,17.5,30.20,East,92,0.0,0.0,48,0.00,,,0.00,Wunderground v.1.15,2013-04-20 03:10:00,
2013-04-19 21:15:00,35.2,17.4,30.20,East,92,0.0,0.0,48,0.00,,,0.00,Wunderground v.1.15,2013-04-20 03:15:00,
2013-04-19 21:25:00,35.0,18.2,30.20,East,92,0.0,0.0,50,0.00,,,0.00,Wunderground v.1.15,2013-04-20 03:25:00,
2013-04-19 21:35:00,34.4,18.1,30.20,East,92,0.0,0.0,51,0.00,,,0.00,Wunderground v.1.15,2013-04-20 03:35:00,
2013-04-19 21:45:00,34.2,19.3,30.19,East,92,0.0,0.0,54,0.00,,,0.00,Wunderground v.1.15,2013-04-20 03:45:00,
2013-04-19 21:50:00,33.8,18.0,30.19,East,92,0.0,0.0,52,0.00,,,0.00,Wunderground v.1.15,2013-04-20 03:50:00,
2013-04-19 21:55:00,33.5,18.2,30.20,East,92,0.0,0.0,53,0.00,,,0.00,Wunderground v.1.15,2013-04-20 03:55:00,
2013-04-19 22:05:00,33.4,18.9,30.19,East,92,0.0,0.0,55,0.00,,,0.00,Wunderground v.1.15,2013-04-20 04:05:00,
2013-04-19 22:10:00,33.4,18.9,30.19,East,92,0.0,0.0,55,0.00,,,0.00,Wunderground v.1.15,2013-04-20 04:10:00,
2013-04-19 22:15:00,33.2,19.2,30.19,East,92,0.0,0.0,56,0.00,,,0.00,Wunderground v.1.15,2013-04-20 04:15:00,
2013-04-19 22:25:00,32.9,19.3,30.19,East,92,0.0,0.0,57,0.00,,,0.00,Wunderground v.1.15,2013-04-20 04:25:00,
2013-04-19 22:30:00,32.8,19.6,30.19,East,92,0.0,0.0,58,0.00,,,0.00,Wunderground v.1.15,2013-04-20 04:30:00,
2013-04-19 22:35:00,32.6,19.0,30.19,East,92,0.0,0.0,57,0.00,,,0.00,Wunderground v.1.15,2013-04-20 04:35:00,
2013-04-19 22:45:00,32.4,20.4,30.18,East,92,0.0,0.0,61,0.00,,,0.00,Wunderground v.1.15,2013-04-20 04:45:00,
2013-04-19 22:55:00,32.3,19.2,30.18,East,92,0.0,0.0,58,0.00,,,0.00,Wunderground v.1.15,2013-04-20 04:55:00,
2013-04-19 23:00:00,32.4,19.7,30.18,East,92,0.0,0.0,59,0.00,,,0.00,Wunderground v.1.15,2013-04-20 05:00:00,
2013-04-19 23:05:00,32.4,20.4,30.18,East,92,0.0,0.0,61,0.00,,,0.00,Wunderground v.1.15,2013-04-20 05:05:00,
2013-04-19 23:15:00,32.3,19.6,30.18,East,92,0.0,1.0,59,0.00,,,0.00,Wunderground v.1.15,2013-04-20 05:15:00,
2013-04-19 23:25:00,32.2,19.1,30.18,East,92,0.0,1.0,58,0.00,,,0.00,Wunderground v.1.15,2013-04-20 05:25:00,
2013-04-19 23:35:00,31.9,19.6,30.17,East,92,0.0,1.0,60,0.00,,,0.00,Wunderground v.1.15,2013-04-20 05:35:00,
2013-04-19 23:40:00,31.7,19.4,30.17,East,92,0.0,1.0,60,0.00,,,0.00,Wunderground v.1.15,2013-04-20 05:40:00,
2013-04-19 23:50:00,31.2,19.3,30.17,East,92,0.0,1.0,61,0.00,,,0.00,Wunderground v.1.15,2013-04-20 05:50:00,
2013-04-19 23:55:00,31.0,19.5,30.17,East,92,0.0,1.0,62,0.00,,,0.00,Wunderground v.1.15,2013-04-20 05:55:00,